sensor_id;sensor_type;location;lat;lon;timestamp;temperature;humidity
52869;DHT22;39100;53.480;6.158;2023-02-10T00:01:28;4.50;99.90
52869;DHT22;39100;53.480;6.158;2023-02-10T00:03:54;4.50;99.90
52869;DHT22;39100;53.480;6.158;2023-02-10T00:06:21;4.50;99.90
52869;DHT22;39100;53.480;6.158;2023-02-10T00:08:55;4.50;99.90
52869;DHT22;39100;53.480;6.158;2023-02-10T00:11:21;4.50;99.90
52869;DHT22;39100;53.480;6.158;2023-02-10T00:14:11;4.50;99.90
52869;DHT22;39100;53.480;6.158;2023-02-10T00:16:37;4.50;99.90
52869;DHT22;39100;53.480;6.158;2023-02-10T00:19:03;4.40;99.90
52869;DHT22;39100;53.480;6.158;2023-02-10T00:21:29;4.30;99.90
52869;DHT22;39100;53.480;6.158;2023-02-10T00:23:54;4.30;99.90
52869;DHT22;39100;53.480;6.158;2023-02-10T00:26:20;4.30;99.90
52869;DHT22;39100;53.480;6.158;2023-02-10T00:28:45;4.30;99.90
52869;DHT22;39100;53.480;6.158;2023-02-10T00:31:16;4.20;99.90
52869;DHT22;39100;53.480;6.158;2023-02-10T00:33:46;4.20;99.90
52869;DHT22;39100;53.480;6.158;2023-02-10T00:36:13;4.10;99.90
52869;DHT22;39100;53.480;6.158;2023-02-10T00:38:40;4.10;99.90
52869;DHT22;39100;53.480;6.158;2023-02-10T00:41:08;4.10;99.90
52869;DHT22;39100;53.480;6.158;2023-02-10T00:43:34;4.00;99.90
52869;DHT22;39100;53.480;6.158;2023-02-10T00:46:00;4.00;99.90
52869;DHT22;39100;53.480;6.158;2023-02-10T00:48:25;3.90;99.90
52869;DHT22;39100;53.480;6.158;2023-02-10T00:50:51;3.90;99.90
52869;DHT22;39100;53.480;6.158;2023-02-10T00:53:16;3.90;99.90
52869;DHT22;39100;53.480;6.158;2023-02-10T00:55:42;3.80;99.90
52869;DHT22;39100;53.480;6.158;2023-02-10T00:58:08;3.90;99.90
52869;DHT22;39100;53.480;6.158;2023-02-10T01:00:33;3.80;99.90
52869;DHT22;39100;53.480;6.158;2023-02-10T01:02:59;3.80;99.90
52869;DHT22;39100;53.480;6.158;2023-02-10T01:05:24;3.70;99.90
52869;DHT22;39100;53.480;6.158;2023-02-10T01:07:50;3.70;99.90
52869;DHT22;39100;53.480;6.158;2023-02-10T01:10:18;3.60;99.90
52869;DHT22;39100;53.480;6.158;2023-02-10T01:12:44;3.60;99.90
52869;DHT22;39100;53.480;6.158;2023-02-10T01:15:09;3.60;99.90
52869;DHT22;39100;53.480;6.158;2023-02-10T01:17:35;3.60;99.90
52869;DHT22;39100;53.480;6.158;2023-02-10T01:20:00;3.60;99.90
52869;DHT22;39100;53.480;6.158;2023-02-10T01:22:26;3.60;99.90
52869;DHT22;39100;53.480;6.158;2023-02-10T01:24:52;3.60;99.90
52869;DHT22;39100;53.480;6.158;2023-02-10T01:27:17;5.10;99.90
52869;DHT22;39100;53.480;6.158;2023-02-10T01:29:43;3.60;99.90
52869;DHT22;39100;53.480;6.158;2023-02-10T01:32:08;3.60;99.90
52869;DHT22;39100;53.480;6.158;2023-02-10T01:34:36;3.50;99.90
52869;DHT22;39100;53.480;6.158;2023-02-10T01:37:01;3.50;99.90
52869;DHT22;39100;53.480;6.158;2023-02-10T01:39:27;3.50;99.90
52869;DHT22;39100;53.480;6.158;2023-02-10T01:41:52;3.50;99.90
52869;DHT22;39100;53.480;6.158;2023-02-10T01:46:48;3.50;99.90
52869;DHT22;39100;53.480;6.158;2023-02-10T01:49:16;3.50;99.90
52869;DHT22;39100;53.480;6.158;2023-02-10T01:51:48;3.60;99.90
52869;DHT22;39100;53.480;6.158;2023-02-10T01:54:19;3.60;99.90
52869;DHT22;39100;53.480;6.158;2023-02-10T01:56:46;3.50;99.90
52869;DHT22;39100;53.480;6.158;2023-02-10T01:59:13;3.50;99.90
52869;DHT22;39100;53.480;6.158;2023-02-10T02:01:39;3.40;99.90
52869;DHT22;39100;53.480;6.158;2023-02-10T02:04:05;3.40;99.90
52869;DHT22;39100;53.480;6.158;2023-02-10T02:06:31;3.40;99.90
52869;DHT22;39100;53.480;6.158;2023-02-10T02:08:58;3.40;99.90
52869;DHT22;39100;53.480;6.158;2023-02-10T02:11:48;3.40;99.90
52869;DHT22;39100;53.480;6.158;2023-02-10T02:17:14;3.40;99.90
52869;DHT22;39100;53.480;6.158;2023-02-10T02:31:57;3.50;99.90
52869;DHT22;39100;53.480;6.158;2023-02-10T02:37:13;3.40;99.90
52869;DHT22;39100;53.480;6.158;2023-02-10T02:39:41;3.40;99.90
52869;DHT22;39100;53.480;6.158;2023-02-10T02:44:43;3.50;99.90
52869;DHT22;39100;53.480;6.158;2023-02-10T02:47:25;3.50;99.90
52869;DHT22;39100;53.480;6.158;2023-02-10T02:50:19;3.50;99.90
52869;DHT22;39100;53.480;6.158;2023-02-10T02:53:09;3.50;99.90
52869;DHT22;39100;53.480;6.158;2023-02-10T03:00:43;3.30;99.90
52869;DHT22;39100;53.480;6.158;2023-02-10T03:03:10;3.40;99.90
52869;DHT22;39100;53.480;6.158;2023-02-10T03:05:36;3.30;99.90
52869;DHT22;39100;53.480;6.158;2023-02-10T03:08:03;3.30;99.90
52869;DHT22;39100;53.480;6.158;2023-02-10T03:10:28;3.30;99.90
52869;DHT22;39100;53.480;6.158;2023-02-10T03:12:54;3.30;99.90
52869;DHT22;39100;53.480;6.158;2023-02-10T03:15:20;3.20;99.90
52869;DHT22;39100;53.480;6.158;2023-02-10T03:17:46;3.30;99.90
52869;DHT22;39100;53.480;6.158;2023-02-10T03:20:11;3.30;99.90
52869;DHT22;39100;53.480;6.158;2023-02-10T03:22:37;3.30;99.90
52869;DHT22;39100;53.480;6.158;2023-02-10T03:25:03;3.30;99.90
52869;DHT22;39100;53.480;6.158;2023-02-10T03:27:28;3.30;99.90
52869;DHT22;39100;53.480;6.158;2023-02-10T03:29:54;3.30;99.90
52869;DHT22;39100;53.480;6.158;2023-02-10T03:32:19;3.30;99.90
52869;DHT22;39100;53.480;6.158;2023-02-10T03:34:45;3.30;99.90
52869;DHT22;39100;53.480;6.158;2023-02-10T03:37:11;3.40;99.90
52869;DHT22;39100;53.480;6.158;2023-02-10T03:39:37;3.40;99.90
52869;DHT22;39100;53.480;6.158;2023-02-10T03:42:03;3.40;99.90
52869;DHT22;39100;53.480;6.158;2023-02-10T03:44:29;3.40;99.90
52869;DHT22;39100;53.480;6.158;2023-02-10T03:46:54;3.40;99.90
52869;DHT22;39100;53.480;6.158;2023-02-10T03:49:20;3.40;99.90
52869;DHT22;39100;53.480;6.158;2023-02-10T03:51:46;3.40;99.90
52869;DHT22;39100;53.480;6.158;2023-02-10T03:54:11;3.40;99.90
52869;DHT22;39100;53.480;6.158;2023-02-10T03:56:37;3.40;99.90
52869;DHT22;39100;53.480;6.158;2023-02-10T03:59:04;3.40;99.90
52869;DHT22;39100;53.480;6.158;2023-02-10T04:01:30;3.30;99.90
52869;DHT22;39100;53.480;6.158;2023-02-10T04:03:56;3.40;99.90
52869;DHT22;39100;53.480;6.158;2023-02-10T04:06:21;3.30;99.90
52869;DHT22;39100;53.480;6.158;2023-02-10T04:08:48;3.40;99.90
52869;DHT22;39100;53.480;6.158;2023-02-10T04:11:14;3.30;99.90
52869;DHT22;39100;53.480;6.158;2023-02-10T04:13:40;3.40;99.90
52869;DHT22;39100;53.480;6.158;2023-02-10T04:16:09;3.40;99.90
52869;DHT22;39100;53.480;6.158;2023-02-10T04:18:36;3.40;99.90
52869;DHT22;39100;53.480;6.158;2023-02-10T04:21:03;3.40;99.90
52869;DHT22;39100;53.480;6.158;2023-02-10T04:23:29;3.40;99.90
52869;DHT22;39100;53.480;6.158;2023-02-10T04:25:55;3.40;99.90
52869;DHT22;39100;53.480;6.158;2023-02-10T04:28:20;3.30;99.90
52869;DHT22;39100;53.480;6.158;2023-02-10T04:30:50;3.30;99.90
52869;DHT22;39100;53.480;6.158;2023-02-10T04:33:16;3.30;99.90
52869;DHT22;39100;53.480;6.158;2023-02-10T04:35:41;3.30;99.90
52869;DHT22;39100;53.480;6.158;2023-02-10T04:38:10;3.40;99.90
52869;DHT22;39100;53.480;6.158;2023-02-10T04:40:36;3.40;99.90
52869;DHT22;39100;53.480;6.158;2023-02-10T04:43:01;3.40;99.90
52869;DHT22;39100;53.480;6.158;2023-02-10T04:45:27;3.30;99.90
52869;DHT22;39100;53.480;6.158;2023-02-10T04:47:52;3.30;99.90
52869;DHT22;39100;53.480;6.158;2023-02-10T04:50:18;3.30;99.90
52869;DHT22;39100;53.480;6.158;2023-02-10T04:52:44;3.20;99.90
52869;DHT22;39100;53.480;6.158;2023-02-10T04:55:09;3.20;99.90
52869;DHT22;39100;53.480;6.158;2023-02-10T04:57:35;3.20;99.90
52869;DHT22;39100;53.480;6.158;2023-02-10T05:00:00;3.10;99.90
52869;DHT22;39100;53.480;6.158;2023-02-10T05:02:26;3.10;99.90
52869;DHT22;39100;53.480;6.158;2023-02-10T05:04:51;3.10;99.90
52869;DHT22;39100;53.480;6.158;2023-02-10T05:07:17;3.10;99.90
52869;DHT22;39100;53.480;6.158;2023-02-10T05:09:42;3.10;99.90
52869;DHT22;39100;53.480;6.158;2023-02-10T05:12:08;3.20;99.90
52869;DHT22;39100;53.480;6.158;2023-02-10T05:14:33;3.20;99.90
52869;DHT22;39100;53.480;6.158;2023-02-10T05:16:59;3.10;99.90
52869;DHT22;39100;53.480;6.158;2023-02-10T05:19:25;3.20;99.90
52869;DHT22;39100;53.480;6.158;2023-02-10T05:21:50;3.20;99.90
52869;DHT22;39100;53.480;6.158;2023-02-10T05:24:16;3.30;99.90
52869;DHT22;39100;53.480;6.158;2023-02-10T05:26:41;3.20;99.90
52869;DHT22;39100;53.480;6.158;2023-02-10T05:29:07;3.20;99.90
52869;DHT22;39100;53.480;6.158;2023-02-10T05:31:32;3.20;99.90
52869;DHT22;39100;53.480;6.158;2023-02-10T05:33:58;3.20;99.90
52869;DHT22;39100;53.480;6.158;2023-02-10T05:36:24;3.20;99.90
52869;DHT22;39100;53.480;6.158;2023-02-10T05:38:49;3.20;99.90
52869;DHT22;39100;53.480;6.158;2023-02-10T05:41:33;3.30;99.90
52869;DHT22;39100;53.480;6.158;2023-02-10T05:43:59;3.30;99.90
52869;DHT22;39100;53.480;6.158;2023-02-10T05:46:24;3.30;99.90
52869;DHT22;39100;53.480;6.158;2023-02-10T05:48:50;3.30;99.90
52869;DHT22;39100;53.480;6.158;2023-02-10T05:51:15;3.30;99.90
52869;DHT22;39100;53.480;6.158;2023-02-10T05:53:41;3.30;99.90
52869;DHT22;39100;53.480;6.158;2023-02-10T05:56:07;3.40;99.90
52869;DHT22;39100;53.480;6.158;2023-02-10T05:58:32;3.40;99.90
52869;DHT22;39100;53.480;6.158;2023-02-10T06:00:59;3.40;99.90
52869;DHT22;39100;53.480;6.158;2023-02-10T06:03:25;3.40;99.90
52869;DHT22;39100;53.480;6.158;2023-02-10T06:05:50;3.40;99.90
52869;DHT22;39100;53.480;6.158;2023-02-10T06:08:17;3.50;99.90
52869;DHT22;39100;53.480;6.158;2023-02-10T06:10:43;3.50;99.90
52869;DHT22;39100;53.480;6.158;2023-02-10T06:13:08;3.50;99.90
52869;DHT22;39100;53.480;6.158;2023-02-10T06:15:34;3.50;99.90
52869;DHT22;39100;53.480;6.158;2023-02-10T06:17:59;3.50;99.90
52869;DHT22;39100;53.480;6.158;2023-02-10T06:20:25;3.60;99.90
52869;DHT22;39100;53.480;6.158;2023-02-10T06:22:51;3.60;99.90
52869;DHT22;39100;53.480;6.158;2023-02-10T06:25:16;3.70;99.90
52869;DHT22;39100;53.480;6.158;2023-02-10T06:27:42;3.70;99.90
52869;DHT22;39100;53.480;6.158;2023-02-10T06:30:08;3.60;99.90
52869;DHT22;39100;53.480;6.158;2023-02-10T06:32:34;3.70;99.90
52869;DHT22;39100;53.480;6.158;2023-02-10T06:34:59;3.60;99.90
52869;DHT22;39100;53.480;6.158;2023-02-10T06:37:25;3.70;99.90
52869;DHT22;39100;53.480;6.158;2023-02-10T06:39:50;3.70;99.90
52869;DHT22;39100;53.480;6.158;2023-02-10T06:42:16;3.80;99.90
52869;DHT22;39100;53.480;6.158;2023-02-10T06:44:41;3.80;99.90
52869;DHT22;39100;53.480;6.158;2023-02-10T06:47:07;3.80;99.90
52869;DHT22;39100;53.480;6.158;2023-02-10T06:49:32;3.80;99.90
52869;DHT22;39100;53.480;6.158;2023-02-10T06:51:58;3.80;99.90
52869;DHT22;39100;53.480;6.158;2023-02-10T06:54:24;3.80;99.90
52869;DHT22;39100;53.480;6.158;2023-02-10T06:56:49;4.20;99.90
52869;DHT22;39100;53.480;6.158;2023-02-10T06:59:15;3.90;99.90
52869;DHT22;39100;53.480;6.158;2023-02-10T07:01:41;3.80;99.90
52869;DHT22;39100;53.480;6.158;2023-02-10T07:04:07;3.90;99.90
52869;DHT22;39100;53.480;6.158;2023-02-10T07:06:33;3.90;99.90
52869;DHT22;39100;53.480;6.158;2023-02-10T07:08:59;3.90;99.90
52869;DHT22;39100;53.480;6.158;2023-02-10T07:11:24;3.80;99.90
52869;DHT22;39100;53.480;6.158;2023-02-10T07:13:50;3.80;99.90
52869;DHT22;39100;53.480;6.158;2023-02-10T07:16:16;3.80;99.90
52869;DHT22;39100;53.480;6.158;2023-02-10T07:18:42;3.70;99.90
52869;DHT22;39100;53.480;6.158;2023-02-10T07:21:08;3.70;99.90
52869;DHT22;39100;53.480;6.158;2023-02-10T07:23:34;3.80;99.90
52869;DHT22;39100;53.480;6.158;2023-02-10T07:25:59;3.80;99.90
52869;DHT22;39100;53.480;6.158;2023-02-10T07:28:25;3.70;99.90
52869;DHT22;39100;53.480;6.158;2023-02-10T07:30:50;3.70;99.90
52869;DHT22;39100;53.480;6.158;2023-02-10T07:33:16;3.70;99.90
52869;DHT22;39100;53.480;6.158;2023-02-10T07:35:41;3.70;99.90
52869;DHT22;39100;53.480;6.158;2023-02-10T07:38:07;3.70;99.90
52869;DHT22;39100;53.480;6.158;2023-02-10T07:40:33;3.70;99.90
52869;DHT22;39100;53.480;6.158;2023-02-10T07:42:59;3.80;99.90
52869;DHT22;39100;53.480;6.158;2023-02-10T07:45:25;3.90;99.90
52869;DHT22;39100;53.480;6.158;2023-02-10T07:47:57;3.90;99.90
52869;DHT22;39100;53.480;6.158;2023-02-10T07:50:23;4.00;99.90
52869;DHT22;39100;53.480;6.158;2023-02-10T07:52:48;4.00;99.90
52869;DHT22;39100;53.480;6.158;2023-02-10T07:55:14;4.40;99.90
52869;DHT22;39100;53.480;6.158;2023-02-10T07:57:40;4.00;99.90
52869;DHT22;39100;53.480;6.158;2023-02-10T08:00:07;4.00;99.90
52869;DHT22;39100;53.480;6.158;2023-02-10T08:02:33;4.10;99.90
52869;DHT22;39100;53.480;6.158;2023-02-10T08:04:59;4.10;99.90
52869;DHT22;39100;53.480;6.158;2023-02-10T08:07:25;4.10;99.90
52869;DHT22;39100;53.480;6.158;2023-02-10T08:09:50;4.10;99.90
52869;DHT22;39100;53.480;6.158;2023-02-10T08:12:16;4.10;99.90
52869;DHT22;39100;53.480;6.158;2023-02-10T08:14:42;4.10;99.90
52869;DHT22;39100;53.480;6.158;2023-02-10T08:17:07;4.20;99.90
52869;DHT22;39100;53.480;6.158;2023-02-10T08:19:33;4.20;99.90
52869;DHT22;39100;53.480;6.158;2023-02-10T08:22:02;4.30;99.90
52869;DHT22;39100;53.480;6.158;2023-02-10T08:24:28;4.30;99.90
52869;DHT22;39100;53.480;6.158;2023-02-10T08:26:54;4.30;99.90
52869;DHT22;39100;53.480;6.158;2023-02-10T08:29:20;4.40;99.90
52869;DHT22;39100;53.480;6.158;2023-02-10T08:31:49;4.40;99.90
52869;DHT22;39100;53.480;6.158;2023-02-10T08:34:16;4.40;99.90
52869;DHT22;39100;53.480;6.158;2023-02-10T08:36:43;4.50;99.90
52869;DHT22;39100;53.480;6.158;2023-02-10T08:39:10;4.50;99.90
52869;DHT22;39100;53.480;6.158;2023-02-10T08:41:36;4.60;99.90
52869;DHT22;39100;53.480;6.158;2023-02-10T08:44:01;4.70;99.90
52869;DHT22;39100;53.480;6.158;2023-02-10T08:46:27;4.70;99.90
52869;DHT22;39100;53.480;6.158;2023-02-10T08:48:52;4.70;99.90
52869;DHT22;39100;53.480;6.158;2023-02-10T08:51:18;4.70;99.90
52869;DHT22;39100;53.480;6.158;2023-02-10T08:53:44;4.70;99.90
52869;DHT22;39100;53.480;6.158;2023-02-10T08:56:15;4.80;99.90
52869;DHT22;39100;53.480;6.158;2023-02-10T08:58:41;4.90;99.90
52869;DHT22;39100;53.480;6.158;2023-02-10T09:01:12;5.00;99.90
52869;DHT22;39100;53.480;6.158;2023-02-10T09:03:39;5.30;99.90
52869;DHT22;39100;53.480;6.158;2023-02-10T09:06:05;5.40;99.90
52869;DHT22;39100;53.480;6.158;2023-02-10T09:08:30;5.60;99.90
52869;DHT22;39100;53.480;6.158;2023-02-10T09:10:56;5.70;99.90
52869;DHT22;39100;53.480;6.158;2023-02-10T09:13:23;5.80;99.90
52869;DHT22;39100;53.480;6.158;2023-02-10T09:15:49;5.90;99.90
52869;DHT22;39100;53.480;6.158;2023-02-10T09:18:14;6.00;99.90
52869;DHT22;39100;53.480;6.158;2023-02-10T09:20:40;6.10;99.90
52869;DHT22;39100;53.480;6.158;2023-02-10T09:23:06;6.20;99.90
52869;DHT22;39100;53.480;6.158;2023-02-10T09:25:31;6.20;99.90
52869;DHT22;39100;53.480;6.158;2023-02-10T09:27:57;6.20;99.90
52869;DHT22;39100;53.480;6.158;2023-02-10T09:30:24;6.10;99.90
52869;DHT22;39100;53.480;6.158;2023-02-10T09:32:50;6.10;99.90
52869;DHT22;39100;53.480;6.158;2023-02-10T09:35:15;6.10;99.90
52869;DHT22;39100;53.480;6.158;2023-02-10T09:37:41;6.10;99.90
52869;DHT22;39100;53.480;6.158;2023-02-10T09:40:09;6.10;99.90
52869;DHT22;39100;53.480;6.158;2023-02-10T09:42:46;6.20;99.90
52869;DHT22;39100;53.480;6.158;2023-02-10T09:45:25;6.30;99.90
52869;DHT22;39100;53.480;6.158;2023-02-10T09:48:00;6.30;99.90
52869;DHT22;39100;53.480;6.158;2023-02-10T09:53:26;6.30;99.90
52869;DHT22;39100;53.480;6.158;2023-02-10T09:55:58;6.40;99.90
52869;DHT22;39100;53.480;6.158;2023-02-10T09:58:32;6.40;99.90
52869;DHT22;39100;53.480;6.158;2023-02-10T10:01:24;6.50;99.90
52869;DHT22;39100;53.480;6.158;2023-02-10T10:04:14;6.50;99.90
52869;DHT22;39100;53.480;6.158;2023-02-10T10:06:44;6.50;99.90
52869;DHT22;39100;53.480;6.158;2023-02-10T10:14:31;6.50;99.90
52869;DHT22;39100;53.480;6.158;2023-02-10T10:17:17;6.70;99.90
52869;DHT22;39100;53.480;6.158;2023-02-10T10:26:50;6.80;99.90
52869;DHT22;39100;53.480;6.158;2023-02-10T10:31:33;6.90;99.90
52869;DHT22;39100;53.480;6.158;2023-02-10T10:34:13;7.00;99.90
52869;DHT22;39100;53.480;6.158;2023-02-10T10:36:42;7.10;99.90
52869;DHT22;39100;53.480;6.158;2023-02-10T10:39:34;7.10;99.90
52869;DHT22;39100;53.480;6.158;2023-02-10T10:44:38;7.20;99.90
52869;DHT22;39100;53.480;6.158;2023-02-10T10:47:15;7.40;99.90
52869;DHT22;39100;53.480;6.158;2023-02-10T10:49:42;7.50;99.90
52869;DHT22;39100;53.480;6.158;2023-02-10T10:52:29;7.60;99.90
52869;DHT22;39100;53.480;6.158;2023-02-10T10:54:57;7.60;99.90
52869;DHT22;39100;53.480;6.158;2023-02-10T10:57:25;7.70;99.90
52869;DHT22;39100;53.480;6.158;2023-02-10T11:00:02;7.80;99.90
52869;DHT22;39100;53.480;6.158;2023-02-10T11:02:28;8.00;99.90
52869;DHT22;39100;53.480;6.158;2023-02-10T11:05:04;8.10;99.90
52869;DHT22;39100;53.480;6.158;2023-02-10T11:07:32;8.10;99.90
52869;DHT22;39100;53.480;6.158;2023-02-10T11:09:58;8.30;99.90
52869;DHT22;39100;53.480;6.158;2023-02-10T11:12:37;8.30;99.90
52869;DHT22;39100;53.480;6.158;2023-02-10T11:15:23;8.50;99.90
52869;DHT22;39100;53.480;6.158;2023-02-10T11:17:53;8.50;99.90
52869;DHT22;39100;53.480;6.158;2023-02-10T11:20:28;8.60;99.90
52869;DHT22;39100;53.480;6.158;2023-02-10T11:23:10;8.60;99.90
52869;DHT22;39100;53.480;6.158;2023-02-10T11:25:37;8.70;99.90
52869;DHT22;39100;53.480;6.158;2023-02-10T11:28:05;8.60;99.90
52869;DHT22;39100;53.480;6.158;2023-02-10T11:30:35;8.60;99.90
52869;DHT22;39100;53.480;6.158;2023-02-10T11:33:02;9.00;99.90
52869;DHT22;39100;53.480;6.158;2023-02-10T11:35:29;8.70;99.90
52869;DHT22;39100;53.480;6.158;2023-02-10T11:38:05;8.70;99.90
52869;DHT22;39100;53.480;6.158;2023-02-10T11:40:49;8.70;99.90
52869;DHT22;39100;53.480;6.158;2023-02-10T11:43:16;8.80;99.90
52869;DHT22;39100;53.480;6.158;2023-02-10T11:45:53;8.80;99.90
52869;DHT22;39100;53.480;6.158;2023-02-10T11:48:22;8.90;99.90
52869;DHT22;39100;53.480;6.158;2023-02-10T11:50:48;8.80;99.90
52869;DHT22;39100;53.480;6.158;2023-02-10T11:53:28;8.80;99.90
52869;DHT22;39100;53.480;6.158;2023-02-10T11:56:02;8.80;99.90
52869;DHT22;39100;53.480;6.158;2023-02-10T12:01:56;8.60;99.90
52869;DHT22;39100;53.480;6.158;2023-02-10T12:12:47;8.80;99.90
52869;DHT22;39100;53.480;6.158;2023-02-10T12:15:16;8.70;99.90
52869;DHT22;39100;53.480;6.158;2023-02-10T12:28:39;8.90;99.90
52869;DHT22;39100;53.480;6.158;2023-02-10T12:31:20;8.90;99.90
52869;DHT22;39100;53.480;6.158;2023-02-10T12:39:43;9.10;99.90
52869;DHT22;39100;53.480;6.158;2023-02-10T12:42:42;9.10;99.90
52869;DHT22;39100;53.480;6.158;2023-02-10T12:45:22;9.00;99.90
52869;DHT22;39100;53.480;6.158;2023-02-10T12:48:09;9.00;99.90
52869;DHT22;39100;53.480;6.158;2023-02-10T12:51:00;8.80;99.90
52869;DHT22;39100;53.480;6.158;2023-02-10T12:53:55;8.90;99.90
52869;DHT22;39100;53.480;6.158;2023-02-10T12:56:34;8.80;99.90
52869;DHT22;39100;53.480;6.158;2023-02-10T12:59:13;8.80;99.90
52869;DHT22;39100;53.480;6.158;2023-02-10T13:01:48;8.70;99.90
52869;DHT22;39100;53.480;6.158;2023-02-10T13:04:26;8.60;99.90
52869;DHT22;39100;53.480;6.158;2023-02-10T13:06:57;8.60;99.90
52869;DHT22;39100;53.480;6.158;2023-02-10T13:09:49;8.50;99.90
52869;DHT22;39100;53.480;6.158;2023-02-10T13:12:26;8.60;99.90
52869;DHT22;39100;53.480;6.158;2023-02-10T13:14:58;8.60;99.90
52869;DHT22;39100;53.480;6.158;2023-02-10T13:17:37;8.60;99.90
52869;DHT22;39100;53.480;6.158;2023-02-10T13:20:25;8.60;99.90
52869;DHT22;39100;53.480;6.158;2023-02-10T13:23:09;8.70;99.90
52869;DHT22;39100;53.480;6.158;2023-02-10T13:36:40;8.70;99.90
52869;DHT22;39100;53.480;6.158;2023-02-10T13:39:20;8.90;99.90
52869;DHT22;39100;53.480;6.158;2023-02-10T13:41:49;8.80;99.90
52869;DHT22;39100;53.480;6.158;2023-02-10T13:44:23;8.80;99.90
52869;DHT22;39100;53.480;6.158;2023-02-10T13:47:47;8.80;99.90
52869;DHT22;39100;53.480;6.158;2023-02-10T13:50:18;8.80;99.90
52869;DHT22;39100;53.480;6.158;2023-02-10T13:52:56;8.70;99.90
52869;DHT22;39100;53.480;6.158;2023-02-10T13:58:16;8.30;99.90
52869;DHT22;39100;53.480;6.158;2023-02-10T14:05:38;8.20;99.90
52869;DHT22;39100;53.480;6.158;2023-02-10T14:08:23;8.30;99.90
52869;DHT22;39100;53.480;6.158;2023-02-10T14:10:57;8.30;99.90
52869;DHT22;39100;53.480;6.158;2023-02-10T14:13:27;8.20;99.90
52869;DHT22;39100;53.480;6.158;2023-02-10T14:16:00;8.10;99.90
52869;DHT22;39100;53.480;6.158;2023-02-10T14:18:28;8.10;99.90
52869;DHT22;39100;53.480;6.158;2023-02-10T14:21:03;8.10;99.90
52869;DHT22;39100;53.480;6.158;2023-02-10T14:23:34;8.00;99.90
52869;DHT22;39100;53.480;6.158;2023-02-10T14:26:16;7.90;99.90
52869;DHT22;39100;53.480;6.158;2023-02-10T14:28:48;7.80;99.90
52869;DHT22;39100;53.480;6.158;2023-02-10T14:31:23;7.80;99.90
52869;DHT22;39100;53.480;6.158;2023-02-10T14:33:56;7.70;99.90
52869;DHT22;39100;53.480;6.158;2023-02-10T14:36:22;7.70;99.90
52869;DHT22;39100;53.480;6.158;2023-02-10T14:39:01;7.70;99.90
52869;DHT22;39100;53.480;6.158;2023-02-10T14:41:29;7.60;99.90
52869;DHT22;39100;53.480;6.158;2023-02-10T14:43:55;7.70;99.90
52869;DHT22;39100;53.480;6.158;2023-02-10T14:46:29;7.60;99.90
52869;DHT22;39100;53.480;6.158;2023-02-10T14:49:08;7.60;99.90
52869;DHT22;39100;53.480;6.158;2023-02-10T14:51:39;7.50;99.90
52869;DHT22;39100;53.480;6.158;2023-02-10T14:54:20;7.50;99.90
52869;DHT22;39100;53.480;6.158;2023-02-10T14:56:57;7.50;99.90
52869;DHT22;39100;53.480;6.158;2023-02-10T14:59:25;7.50;99.90
52869;DHT22;39100;53.480;6.158;2023-02-10T15:01:53;7.50;99.90
52869;DHT22;39100;53.480;6.158;2023-02-10T15:04:20;7.60;99.90
52869;DHT22;39100;53.480;6.158;2023-02-10T15:06:53;7.60;99.90
52869;DHT22;39100;53.480;6.158;2023-02-10T15:09:31;7.50;99.90
52869;DHT22;39100;53.480;6.158;2023-02-10T15:12:09;7.50;99.90
52869;DHT22;39100;53.480;6.158;2023-02-10T15:22:49;7.30;99.90
52869;DHT22;39100;53.480;6.158;2023-02-10T15:27:53;7.10;99.90
52869;DHT22;39100;53.480;6.158;2023-02-10T15:30:27;7.10;99.90
52869;DHT22;39100;53.480;6.158;2023-02-10T15:32:55;7.00;99.90
52869;DHT22;39100;53.480;6.158;2023-02-10T15:35:21;6.90;99.90
52869;DHT22;39100;53.480;6.158;2023-02-10T15:37:52;6.90;99.90
52869;DHT22;39100;53.480;6.158;2023-02-10T15:40:24;6.80;99.90
52869;DHT22;39100;53.480;6.158;2023-02-10T15:43:04;6.80;99.90
52869;DHT22;39100;53.480;6.158;2023-02-10T15:45:30;6.70;99.90
52869;DHT22;39100;53.480;6.158;2023-02-10T15:48:00;6.80;99.90
52869;DHT22;39100;53.480;6.158;2023-02-10T15:50:28;6.90;99.90
52869;DHT22;39100;53.480;6.158;2023-02-10T15:52:54;6.80;99.90
52869;DHT22;39100;53.480;6.158;2023-02-10T15:55:33;6.70;99.90
52869;DHT22;39100;53.480;6.158;2023-02-10T15:58:00;6.80;99.90
52869;DHT22;39100;53.480;6.158;2023-02-10T16:00:33;6.80;99.90
52869;DHT22;39100;53.480;6.158;2023-02-10T16:03:00;6.70;99.90
52869;DHT22;39100;53.480;6.158;2023-02-10T16:05:26;6.70;99.90
52869;DHT22;39100;53.480;6.158;2023-02-10T16:07:54;6.70;99.90
52869;DHT22;39100;53.480;6.158;2023-02-10T16:10:24;6.70;99.90
52869;DHT22;39100;53.480;6.158;2023-02-10T16:12:50;6.70;99.90
52869;DHT22;39100;53.480;6.158;2023-02-10T16:15:19;6.60;99.90
52869;DHT22;39100;53.480;6.158;2023-02-10T16:17:51;6.50;99.90
52869;DHT22;39100;53.480;6.158;2023-02-10T16:20:23;6.40;99.90
52869;DHT22;39100;53.480;6.158;2023-02-10T16:22:49;6.40;99.90
52869;DHT22;39100;53.480;6.158;2023-02-10T16:25:16;6.30;99.90
52869;DHT22;39100;53.480;6.158;2023-02-10T16:27:42;6.30;99.90
52869;DHT22;39100;53.480;6.158;2023-02-10T16:30:27;6.20;99.90
52869;DHT22;39100;53.480;6.158;2023-02-10T16:32:54;6.20;99.90
52869;DHT22;39100;53.480;6.158;2023-02-10T16:35:21;6.10;99.90
52869;DHT22;39100;53.480;6.158;2023-02-10T16:37:47;6.10;99.90
52869;DHT22;39100;53.480;6.158;2023-02-10T16:40:19;6.10;99.90
52869;DHT22;39100;53.480;6.158;2023-02-10T16:42:47;6.00;99.90
52869;DHT22;39100;53.480;6.158;2023-02-10T16:45:13;6.00;99.90
52869;DHT22;39100;53.480;6.158;2023-02-10T16:47:38;6.10;99.90
52869;DHT22;39100;53.480;6.158;2023-02-10T16:50:04;6.00;99.90
52869;DHT22;39100;53.480;6.158;2023-02-10T16:52:31;6.00;99.90
52869;DHT22;39100;53.480;6.158;2023-02-10T16:54:56;6.00;99.90
52869;DHT22;39100;53.480;6.158;2023-02-10T16:57:22;6.80;99.90
52869;DHT22;39100;53.480;6.158;2023-02-10T16:59:48;5.90;99.90
52869;DHT22;39100;53.480;6.158;2023-02-10T17:02:17;5.90;99.90
52869;DHT22;39100;53.480;6.158;2023-02-10T17:04:43;5.90;99.90
52869;DHT22;39100;53.480;6.158;2023-02-10T17:07:09;5.80;99.90
52869;DHT22;39100;53.480;6.158;2023-02-10T17:09:36;5.80;99.90
52869;DHT22;39100;53.480;6.158;2023-02-10T17:12:02;5.90;99.90
52869;DHT22;39100;53.480;6.158;2023-02-10T17:14:28;5.80;99.90
52869;DHT22;39100;53.480;6.158;2023-02-10T17:16:53;5.80;99.90
52869;DHT22;39100;53.480;6.158;2023-02-10T17:19:20;5.80;99.90
52869;DHT22;39100;53.480;6.158;2023-02-10T17:21:47;5.80;99.90
52869;DHT22;39100;53.480;6.158;2023-02-10T17:24:12;5.70;99.90
52869;DHT22;39100;53.480;6.158;2023-02-10T17:26:38;5.70;99.90
52869;DHT22;39100;53.480;6.158;2023-02-10T17:29:13;5.70;99.90
52869;DHT22;39100;53.480;6.158;2023-02-10T17:31:40;5.70;99.90
52869;DHT22;39100;53.480;6.158;2023-02-10T17:34:05;5.70;99.90
52869;DHT22;39100;53.480;6.158;2023-02-10T17:36:32;5.70;99.90
52869;DHT22;39100;53.480;6.158;2023-02-10T17:38:58;5.60;99.90
52869;DHT22;39100;53.480;6.158;2023-02-10T17:41:29;5.60;99.90
52869;DHT22;39100;53.480;6.158;2023-02-10T17:43:56;5.60;99.90